sensor_id;sensor_type;location;lat;lon;timestamp;pressure;altitude;pressure_sealevel;temperature;humidity
72942;BME280;61097;55.818;37.312;2023-04-25T00:00:28;99266.00;;;13.38;27.94
72942;BME280;61097;55.818;37.312;2023-04-25T00:02:54;99256.22;;;13.24;26.88
72942;BME280;61097;55.818;37.312;2023-04-25T00:05:22;99258.00;;;13.23;27.14
72942;BME280;61097;55.818;37.312;2023-04-25T00:07:49;99259.78;;;13.23;27.54
72942;BME280;61097;55.818;37.312;2023-04-25T00:10:15;99261.75;;;13.19;28.08
72942;BME280;61097;55.818;37.312;2023-04-25T00:12:41;99271.63;;;13.16;28.30
72942;BME280;61097;55.818;37.312;2023-04-25T00:15:07;99271.69;;;13.14;27.61
72942;BME280;61097;55.818;37.312;2023-04-25T00:17:33;99270.81;;;13.14;28.16
72942;BME280;61097;55.818;37.312;2023-04-25T00:20:00;99268.13;;;13.15;27.94
72942;BME280;61097;55.818;37.312;2023-04-25T00:22:26;99262.13;;;13.12;27.98
72942;BME280;61097;55.818;37.312;2023-04-25T00:24:51;99261.34;;;13.10;28.16
72942;BME280;61097;55.818;37.312;2023-04-25T00:27:18;99269.44;;;13.07;28.29
72942;BME280;61097;55.818;37.312;2023-04-25T00:29:44;99267.81;;;13.04;28.24
72942;BME280;61097;55.818;37.312;2023-04-25T00:32:10;99272.94;;;13.07;28.94
72942;BME280;61097;55.818;37.312;2023-04-25T00:34:35;99272.16;;;13.05;28.51
72942;BME280;61097;55.818;37.312;2023-04-25T00:37:01;99279.25;;;13.05;28.71
72942;BME280;61097;55.818;37.312;2023-04-25T00:39:27;99282.97;;;13.01;28.61
72942;BME280;61097;55.818;37.312;2023-04-25T00:41:54;99284.78;;;13.00;28.48
72942;BME280;61097;55.818;37.312;2023-04-25T00:44:20;99283.50;;;12.91;29.79
72942;BME280;61097;55.818;37.312;2023-04-25T00:46:47;99283.03;;;12.83;29.89
72942;BME280;61097;55.818;37.312;2023-04-25T00:49:14;99275.59;;;12.74;30.73
72942;BME280;61097;55.818;37.312;2023-04-25T00:51:43;99292.13;;;12.78;29.38
72942;BME280;61097;55.818;37.312;2023-04-25T00:54:12;99295.56;;;12.80;29.57
72942;BME280;61097;55.818;37.312;2023-04-25T00:56:39;99288.91;;;12.73;30.51
72942;BME280;61097;55.818;37.312;2023-04-25T00:59:05;99303.41;;;12.81;30.04
72942;BME280;61097;55.818;37.312;2023-04-25T01:01:31;99298.13;;;12.81;30.60
72942;BME280;61097;55.818;37.312;2023-04-25T01:03:58;99294.69;;;12.79;30.39
72942;BME280;61097;55.818;37.312;2023-04-25T01:06:24;99285.13;;;12.77;31.15
72942;BME280;61097;55.818;37.312;2023-04-25T01:08:50;99282.72;;;12.89;29.45
72942;BME280;61097;55.818;37.312;2023-04-25T01:11:16;99281.63;;;12.94;28.92
72942;BME280;61097;55.818;37.312;2023-04-25T01:13:42;99282.91;;;13.02;30.66
72942;BME280;61097;55.818;37.312;2023-04-25T01:16:07;99270.63;;;13.01;30.40
72942;BME280;61097;55.818;37.312;2023-04-25T01:18:33;99280.53;;;13.13;30.67
72942;BME280;61097;55.818;37.312;2023-04-25T01:21:10;99266.97;;;13.04;30.47
72942;BME280;61097;55.818;37.312;2023-04-25T01:23:38;99272.31;;;13.02;29.98
72942;BME280;61097;55.818;37.312;2023-04-25T01:26:04;99274.13;;;13.02;30.41
72942;BME280;61097;55.818;37.312;2023-04-25T01:28:33;99273.09;;;13.04;30.28
72942;BME280;61097;55.818;37.312;2023-04-25T01:30:59;99279.06;;;13.08;30.08
72942;BME280;61097;55.818;37.312;2023-04-25T01:33:25;99277.38;;;13.07;29.75
72942;BME280;61097;55.818;37.312;2023-04-25T01:35:51;99275.75;;;13.04;29.95
72942;BME280;61097;55.818;37.312;2023-04-25T01:38:19;99275.81;;;13.03;30.46
72942;BME280;61097;55.818;37.312;2023-04-25T01:40:45;99276.69;;;13.03;30.58
72942;BME280;61097;55.818;37.312;2023-04-25T01:43:12;99276.34;;;13.09;31.04
72942;BME280;61097;55.818;37.312;2023-04-25T01:45:40;99274.47;;;13.11;30.78
72942;BME280;61097;55.818;37.312;2023-04-25T01:48:08;99262.84;;;13.15;30.19
72942;BME280;61097;55.818;37.312;2023-04-25T01:50:35;99264.47;;;13.18;30.43
72942;BME280;61097;55.818;37.312;2023-04-25T01:53:01;99267.53;;;13.26;30.20
72942;BME280;61097;55.818;37.312;2023-04-25T01:55:29;99264.72;;;13.29;30.79
72942;BME280;61097;55.818;37.312;2023-04-25T01:58:02;99263.84;;;13.29;30.46
72942;BME280;61097;55.818;37.312;2023-04-25T02:00:47;99256.28;;;13.22;31.06
72942;BME280;61097;55.818;37.312;2023-04-25T02:03:12;99268.28;;;13.28;30.69
72942;BME280;61097;55.818;37.312;2023-04-25T02:05:39;99241.69;;;13.15;30.75
72942;BME280;61097;55.818;37.312;2023-04-25T02:08:08;99269.75;;;13.34;30.50
72942;BME280;61097;55.818;37.312;2023-04-25T02:10:35;99266.16;;;13.35;30.54
72942;BME280;61097;55.818;37.312;2023-04-25T02:13:08;99263.28;;;13.39;30.55
72942;BME280;61097;55.818;37.312;2023-04-25T02:15:44;99261.31;;;13.43;30.67
72942;BME280;61097;55.818;37.312;2023-04-25T02:18:34;99258.50;;;13.46;30.88
72942;BME280;61097;55.818;37.312;2023-04-25T02:21:00;99260.22;;;13.47;30.78
72942;BME280;61097;55.818;37.312;2023-04-25T02:23:26;99254.84;;;13.48;31.18
72942;BME280;61097;55.818;37.312;2023-04-25T02:25:52;99253.69;;;13.52;30.82
72942;BME280;61097;55.818;37.312;2023-04-25T02:28:18;99249.25;;;13.53;30.16
72942;BME280;61097;55.818;37.312;2023-04-25T02:30:44;99258.47;;;13.62;30.58
72942;BME280;61097;55.818;37.312;2023-04-25T02:33:09;99250.28;;;13.66;30.99
72942;BME280;61097;55.818;37.312;2023-04-25T02:35:35;99249.94;;;13.72;30.52
72942;BME280;61097;55.818;37.312;2023-04-25T02:38:01;99244.66;;;13.72;30.66
72942;BME280;61097;55.818;37.312;2023-04-25T02:40:26;99253.81;;;13.97;30.42
72942;BME280;61097;55.818;37.312;2023-04-25T02:42:53;99251.72;;;14.32;30.55
72942;BME280;61097;55.818;37.312;2023-04-25T02:45:19;99234.13;;;14.60;30.12
72942;BME280;61097;55.818;37.312;2023-04-25T02:47:44;99250.97;;;15.16;29.90
72942;BME280;61097;55.818;37.312;2023-04-25T02:50:10;99236.31;;;15.52;29.45
72942;BME280;61097;55.818;37.312;2023-04-25T02:52:37;99243.63;;;16.02;29.16
72942;BME280;61097;55.818;37.312;2023-04-25T02:55:12;99246.19;;;16.16;29.00
72942;BME280;61097;55.818;37.312;2023-04-25T02:57:38;99229.56;;;15.87;28.96
72942;BME280;61097;55.818;37.312;2023-04-25T03:00:05;99249.53;;;15.80;28.43
72942;BME280;61097;55.818;37.312;2023-04-25T03:02:31;99249.84;;;15.61;28.55
72942;BME280;61097;55.818;37.312;2023-04-25T03:04:56;99243.91;;;15.44;29.05
72942;BME280;61097;55.818;37.312;2023-04-25T03:07:22;99247.88;;;15.37;29.14
72942;BME280;61097;55.818;37.312;2023-04-25T03:09:48;99239.41;;;15.32;28.82
72942;BME280;61097;55.818;37.312;2023-04-25T03:12:13;99247.97;;;15.35;29.19
72942;BME280;61097;55.818;37.312;2023-04-25T03:14:39;99249.22;;;15.44;29.14
72942;BME280;61097;55.818;37.312;2023-04-25T03:17:04;99251.28;;;15.53;28.64
72942;BME280;61097;55.818;37.312;2023-04-25T03:19:30;99241.88;;;15.61;28.59
72942;BME280;61097;55.818;37.312;2023-04-25T03:21:55;99255.88;;;15.78;28.88
72942;BME280;61097;55.818;37.312;2023-04-25T03:24:21;99260.31;;;16.04;28.57
72942;BME280;61097;55.818;37.312;2023-04-25T03:26:47;99255.38;;;16.25;28.74
72942;BME280;61097;55.818;37.312;2023-04-25T03:29:12;99264.69;;;16.18;28.12
72942;BME280;61097;55.818;37.312;2023-04-25T03:31:40;99257.66;;;16.04;28.25
72942;BME280;61097;55.818;37.312;2023-04-25T03:34:06;99253.22;;;16.17;28.28
72942;BME280;61097;55.818;37.312;2023-04-25T03:36:31;99253.91;;;16.46;28.26
72942;BME280;61097;55.818;37.312;2023-04-25T03:38:58;99254.13;;;16.56;28.02
72942;BME280;61097;55.818;37.312;2023-04-25T03:41:24;99255.44;;;16.76;28.02
72942;BME280;61097;55.818;37.312;2023-04-25T03:44:03;99246.16;;;16.94;28.17
72942;BME280;61097;55.818;37.312;2023-04-25T03:46:29;99259.91;;;17.13;27.68
72942;BME280;61097;55.818;37.312;2023-04-25T03:48:55;99251.66;;;17.29;27.69
72942;BME280;61097;55.818;37.312;2023-04-25T03:51:26;99245.47;;;17.28;27.14
72942;BME280;61097;55.818;37.312;2023-04-25T03:53:52;99236.66;;;17.28;27.31
72942;BME280;61097;55.818;37.312;2023-04-25T03:56:18;99237.63;;;17.51;27.15
72942;BME280;61097;55.818;37.312;2023-04-25T03:58:45;99217.84;;;17.79;25.84
72942;BME280;61097;55.818;37.312;2023-04-25T04:01:12;99212.78;;;18.22;26.61
72942;BME280;61097;55.818;37.312;2023-04-25T04:03:39;99204.69;;;18.92;26.50
72942;BME280;61097;55.818;37.312;2023-04-25T04:06:06;99203.34;;;20.69;25.75
72942;BME280;61097;55.818;37.312;2023-04-25T04:08:36;99204.97;;;22.38;23.73
72942;BME280;61097;55.818;37.312;2023-04-25T04:11:02;99210.66;;;24.09;23.13
72942;BME280;61097;55.818;37.312;2023-04-25T04:13:28;99212.34;;;25.82;21.60
72942;BME280;61097;55.818;37.312;2023-04-25T04:15:54;99212.97;;;27.06;20.72
72942;BME280;61097;55.818;37.312;2023-04-25T04:18:21;99215.44;;;28.24;19.73
72942;BME280;61097;55.818;37.312;2023-04-25T04:20:47;99214.75;;;29.42;18.92
72942;BME280;61097;55.818;37.312;2023-04-25T04:23:13;99213.72;;;30.57;17.71
72942;BME280;61097;55.818;37.312;2023-04-25T04:25:39;99214.44;;;31.89;17.26
72942;BME280;61097;55.818;37.312;2023-04-25T04:28:25;99223.25;;;33.43;16.46
72942;BME280;61097;55.818;37.312;2023-04-25T04:31:14;99225.28;;;33.54;15.36
72942;BME280;61097;55.818;37.312;2023-04-25T04:33:41;99219.06;;;33.85;16.11
72942;BME280;61097;55.818;37.312;2023-04-25T04:36:07;99222.63;;;33.34;15.47
72942;BME280;61097;55.818;37.312;2023-04-25T04:38:33;99220.78;;;33.09;15.95
72942;BME280;61097;55.818;37.312;2023-04-25T04:41:01;99213.63;;;34.17;15.61
72942;BME280;61097;55.818;37.312;2023-04-25T04:43:48;99208.59;;;35.13;15.34
72942;BME280;61097;55.818;37.312;2023-04-25T04:46:31;99201.38;;;35.19;14.79
72942;BME280;61097;55.818;37.312;2023-04-25T04:49:17;99207.84;;;35.79;14.38
72942;BME280;61097;55.818;37.312;2023-04-25T04:52:06;99214.53;;;35.83;14.27
72942;BME280;61097;55.818;37.312;2023-04-25T04:54:49;99201.72;;;34.86;14.65
72942;BME280;61097;55.818;37.312;2023-04-25T04:57:38;99216.06;;;34.56;15.38
72942;BME280;61097;55.818;37.312;2023-04-25T05:00:31;99209.31;;;35.45;15.03
72942;BME280;61097;55.818;37.312;2023-04-25T05:03:12;99209.06;;;35.83;15.01
72942;BME280;69665;55.822;37.330;2023-04-25T05:06:10;99213.88;;;36.41;14.44
72942;BME280;69665;55.822;37.330;2023-04-25T05:09:11;99224.59;;;36.84;14.24
72942;BME280;69665;55.822;37.330;2023-04-25T05:11:53;99214.94;;;36.40;13.80
72942;BME280;69665;55.822;37.330;2023-04-25T05:14:57;99210.34;;;37.74;14.10
72942;BME280;69665;55.822;37.330;2023-04-25T05:17:51;99216.88;;;37.68;13.60
72942;BME280;69665;55.822;37.330;2023-04-25T05:20:43;99213.56;;;36.19;14.08
72942;BME280;69665;55.822;37.330;2023-04-25T05:23:28;99209.97;;;35.77;13.68
72942;BME280;69665;55.822;37.330;2023-04-25T05:26:18;99192.50;;;35.90;14.33
72942;BME280;69665;55.822;37.330;2023-04-25T05:28:52;99195.19;;;36.08;13.94
72942;BME280;69665;55.822;37.330;2023-04-25T05:31:36;99218.97;;;37.78;13.65
72942;BME280;69665;55.822;37.330;2023-04-25T05:34:08;99213.88;;;37.46;14.29
72942;BME280;69665;55.822;37.330;2023-04-25T05:36:52;99207.75;;;37.04;13.38
72942;BME280;69665;55.822;37.330;2023-04-25T05:39:18;99209.28;;;36.23;14.12
72942;BME280;69665;55.822;37.330;2023-04-25T05:42:02;99210.81;;;36.49;14.32
72942;BME280;69665;55.822;37.330;2023-04-25T05:44:58;99220.84;;;36.67;13.87
72942;BME280;69665;55.822;37.330;2023-04-25T05:47:47;99218.06;;;35.54;14.50
72942;BME280;69665;55.822;37.330;2023-04-25T05:50:17;99225.53;;;35.47;14.37
72942;BME280;69665;55.822;37.330;2023-04-25T05:53:03;99202.41;;;35.91;13.33
72942;BME280;69665;55.822;37.330;2023-04-25T05:55:39;99205.41;;;36.01;13.77
72942;BME280;69665;55.822;37.330;2023-04-25T05:58:18;99211.41;;;36.51;13.92
72942;BME280;69665;55.822;37.330;2023-04-25T06:00:44;99210.53;;;37.56;13.72
72942;BME280;69665;55.822;37.330;2023-04-25T06:03:10;99198.19;;;38.77;12.92
72942;BME280;69665;55.822;37.330;2023-04-25T06:05:36;99204.50;;;39.77;12.66
72942;BME280;69665;55.822;37.330;2023-04-25T06:08:02;99198.00;;;41.16;12.44
72942;BME280;69665;55.822;37.330;2023-04-25T06:10:27;99196.91;;;41.84;12.17
72942;BME280;69665;55.822;37.330;2023-04-25T06:12:53;99200.34;;;42.42;12.00
72942;BME280;69665;55.822;37.330;2023-04-25T06:15:25;99195.81;;;43.17;12.18
72942;BME280;69665;55.822;37.330;2023-04-25T06:17:51;99188.06;;;43.89;11.35
72942;BME280;69665;55.822;37.330;2023-04-25T06:20:17;99180.78;;;43.93;11.09
72942;BME280;69665;55.822;37.330;2023-04-25T06:22:42;99185.00;;;44.63;11.40
72942;BME280;69665;55.822;37.330;2023-04-25T06:25:08;99192.59;;;45.35;11.30
72942;BME280;69665;55.822;37.330;2023-04-25T06:27:34;99191.31;;;44.98;11.08
72942;BME280;69665;55.822;37.330;2023-04-25T06:30:00;99174.13;;;44.33;10.93
72942;BME280;69665;55.822;37.330;2023-04-25T06:32:26;99173.53;;;44.41;11.41
72942;BME280;69665;55.822;37.330;2023-04-25T06:34:58;99183.66;;;44.22;11.55
72942;BME280;69665;55.822;37.330;2023-04-25T06:37:23;99165.38;;;43.02;11.91
72942;BME280;69665;55.822;37.330;2023-04-25T06:39:50;99169.00;;;43.72;11.73
72942;BME280;69665;55.822;37.330;2023-04-25T06:42:16;99156.47;;;44.19;10.67
72942;BME280;69665;55.822;37.330;2023-04-25T06:44:50;99170.81;;;44.65;9.25
72942;BME280;69665;55.822;37.330;2023-04-25T06:47:17;99179.75;;;46.00;11.37
72942;BME280;69665;55.822;37.330;2023-04-25T06:49:42;99164.28;;;46.26;11.35
72942;BME280;69665;55.822;37.330;2023-04-25T06:52:09;99172.44;;;47.56;10.36
72942;BME280;69665;55.822;37.330;2023-04-25T06:54:36;99161.06;;;47.80;10.85
72942;BME280;69665;55.822;37.330;2023-04-25T06:57:13;99167.53;;;48.34;10.81
72942;BME280;69665;55.822;37.330;2023-04-25T06:59:39;99166.59;;;48.61;10.10
72942;BME280;69665;55.822;37.330;2023-04-25T07:02:05;99146.34;;;48.33;10.79
72942;BME280;69665;55.822;37.330;2023-04-25T07:04:31;99167.09;;;47.46;10.76
72942;BME280;69665;55.822;37.330;2023-04-25T07:07:01;99167.28;;;46.95;9.93
72942;BME280;69665;55.822;37.330;2023-04-25T07:09:41;99152.94;;;47.15;11.30
72942;BME280;69665;55.822;37.330;2023-04-25T07:12:06;99163.03;;;46.97;10.59
72942;BME280;69665;55.822;37.330;2023-04-25T07:14:33;99156.09;;;46.81;9.26
72942;BME280;69665;55.822;37.330;2023-04-25T07:16:59;99170.25;;;46.71;11.00
72942;BME280;69665;55.822;37.330;2023-04-25T07:19:26;99167.84;;;46.32;10.85
72942;BME280;69665;55.822;37.330;2023-04-25T07:21:56;99160.78;;;46.21;10.71
72942;BME280;69665;55.822;37.330;2023-04-25T07:24:22;99172.44;;;46.74;10.24
72942;BME280;69665;55.822;37.330;2023-04-25T07:26:49;99159.72;;;46.17;10.51
72942;BME280;69665;55.822;37.330;2023-04-25T07:29:34;99156.94;;;45.79;10.94
72942;BME280;69665;55.822;37.330;2023-04-25T07:32:02;99141.44;;;46.89;10.77
72942;BME280;69665;55.822;37.330;2023-04-25T07:34:29;99155.47;;;46.84;10.59
72942;BME280;69665;55.822;37.330;2023-04-25T07:36:56;99151.69;;;47.21;10.39
72942;BME280;69665;55.822;37.330;2023-04-25T07:39:24;99130.56;;;47.56;9.96
72942;BME280;69665;55.822;37.330;2023-04-25T07:41:50;99155.19;;;47.90;9.64
72942;BME280;69665;55.822;37.330;2023-04-25T07:44:22;99153.22;;;47.55;9.25
72942;BME280;69665;55.822;37.330;2023-04-25T07:46:52;99157.59;;;46.60;9.06
72942;BME280;69665;55.822;37.330;2023-04-25T07:49:21;99150.00;;;46.79;10.09
72942;BME280;69665;55.822;37.330;2023-04-25T07:51:46;99152.22;;;46.63;10.66
72942;BME280;69665;55.822;37.330;2023-04-25T07:54:15;99137.41;;;46.68;10.56
72942;BME280;69665;55.822;37.330;2023-04-25T07:56:46;99155.66;;;45.90;10.04
72942;BME280;69665;55.822;37.330;2023-04-25T07:59:12;99155.91;;;45.33;9.21
72942;BME280;69665;55.822;37.330;2023-04-25T08:01:39;99164.25;;;45.09;10.76
72942;BME280;69665;55.822;37.330;2023-04-25T08:04:06;99153.78;;;44.72;10.71
72942;BME280;69665;55.822;37.330;2023-04-25T08:06:45;99146.19;;;45.06;10.68
72942;BME280;69665;55.822;37.330;2023-04-25T08:09:16;99165.13;;;44.80;10.69
72942;BME280;69665;55.822;37.330;2023-04-25T08:11:42;99136.63;;;42.37;11.79
72942;BME280;69665;55.822;37.330;2023-04-25T08:14:11;99147.19;;;39.57;12.01
72942;BME280;69665;55.822;37.330;2023-04-25T08:16:38;99128.16;;;39.82;11.70
72942;BME280;69665;55.822;37.330;2023-04-25T08:19:04;99118.72;;;38.86;12.24
72942;BME280;69665;55.822;37.330;2023-04-25T08:21:30;99137.53;;;39.54;11.84
72942;BME280;69665;55.822;37.330;2023-04-25T08:23:59;99152.16;;;40.09;11.53
72942;BME280;69665;55.822;37.330;2023-04-25T08:26:32;99134.53;;;40.42;11.67
72942;BME280;69665;55.822;37.330;2023-04-25T08:29:01;99141.25;;;40.98;10.61
72942;BME280;69665;55.822;37.330;2023-04-25T08:31:27;99139.78;;;41.38;10.56
72942;BME280;69665;55.822;37.330;2023-04-25T08:33:57;99127.00;;;41.21;11.34
72942;BME280;69665;55.822;37.330;2023-04-25T08:36:43;99131.56;;;39.89;11.44
72942;BME280;69665;55.822;37.330;2023-04-25T08:39:38;99120.13;;;39.81;11.30
72942;BME280;69665;55.822;37.330;2023-04-25T08:42:18;99135.19;;;40.22;8.89
72942;BME280;69665;55.822;37.330;2023-04-25T08:44:45;99112.84;;;40.28;11.00
72942;BME280;69665;55.822;37.330;2023-04-25T08:47:12;99143.31;;;41.18;10.96
72942;BME280;69665;55.822;37.330;2023-04-25T08:49:45;99119.56;;;41.27;10.93
72942;BME280;69665;55.822;37.330;2023-04-25T08:52:12;99131.22;;;41.39;10.88
72942;BME280;69665;55.822;37.330;2023-04-25T08:54:42;99118.78;;;40.84;9.92
72942;BME280;69665;55.822;37.330;2023-04-25T08:57:10;99127.44;;;40.56;10.56
72942;BME280;69665;55.822;37.330;2023-04-25T08:59:40;99121.06;;;40.55;10.55
72942;BME280;69665;55.822;37.330;2023-04-25T09:02:14;99128.38;;;40.02;11.39
72942;BME280;69665;55.822;37.330;2023-04-25T09:04:43;99115.72;;;39.53;11.05
72942;BME280;69665;55.822;37.330;2023-04-25T09:07:09;99098.06;;;37.83;11.89
72942;BME280;69665;55.822;37.330;2023-04-25T09:09:35;99114.66;;;35.13;13.01
72942;BME280;69665;55.822;37.330;2023-04-25T09:12:01;99122.03;;;32.67;13.59
72942;BME280;69665;55.822;37.330;2023-04-25T09:17:55;99090.09;;;29.40;15.34
72942;BME280;69665;55.822;37.330;2023-04-25T09:20:21;99095.53;;;29.04;15.66
72942;BME280;69665;55.822;37.330;2023-04-25T09:22:47;99087.56;;;28.29;15.78
72942;BME280;69665;55.822;37.330;2023-04-25T09:25:13;99102.00;;;27.84;15.83
72942;BME280;69665;55.822;37.330;2023-04-25T09:27:51;99087.19;;;27.26;16.63
72942;BME280;69665;55.822;37.330;2023-04-25T09:30:33;99090.09;;;27.16;16.66
72942;BME280;69665;55.822;37.330;2023-04-25T09:33:19;99094.63;;;26.85;16.31
72942;BME280;69665;55.822;37.330;2023-04-25T09:35:48;99080.41;;;26.44;16.35
72942;BME280;69665;55.822;37.330;2023-04-25T09:38:50;99088.19;;;26.39;16.53
72942;BME280;69665;55.822;37.330;2023-04-25T09:41:25;99092.63;;;25.83;17.03
72942;BME280;69665;55.822;37.330;2023-04-25T09:43:56;99094.38;;;25.17;17.54
72942;BME280;69665;55.822;37.330;2023-04-25T09:46:24;99066.72;;;24.65;17.46
72942;BME280;69665;55.822;37.330;2023-04-25T09:48:53;99089.72;;;24.25;17.04
72942;BME280;69665;55.822;37.330;2023-04-25T09:51:29;99108.31;;;23.75;17.50
72942;BME280;69665;55.822;37.330;2023-04-25T09:53:57;99106.53;;;23.30;17.71
72942;BME280;69665;55.822;37.330;2023-04-25T09:56:44;99073.94;;;23.16;17.47
72942;BME280;69665;55.822;37.330;2023-04-25T09:59:14;99100.06;;;23.23;18.08
72942;BME280;69665;55.822;37.330;2023-04-25T10:01:40;99101.94;;;23.13;17.94
72942;BME280;69665;55.822;37.330;2023-04-25T10:04:12;99091.00;;;23.07;17.92
72942;BME280;69665;55.822;37.330;2023-04-25T10:06:53;99095.69;;;22.67;18.44
72942;BME280;69665;55.822;37.330;2023-04-25T10:09:21;99099.81;;;22.15;18.56
72942;BME280;69665;55.822;37.330;2023-04-25T10:11:50;99096.03;;;22.08;19.18
72942;BME280;69665;55.822;37.330;2023-04-25T10:14:17;99084.28;;;22.09;18.82
72942;BME280;69665;55.822;37.330;2023-04-25T10:16:43;99072.00;;;22.16;18.24
72942;BME280;69665;55.822;37.330;2023-04-25T10:19:10;99080.66;;;22.47;17.98
72942;BME280;69665;55.822;37.330;2023-04-25T10:21:46;99070.66;;;22.67;19.05
72942;BME280;69665;55.822;37.330;2023-04-25T10:24:14;99059.50;;;22.72;19.03
72942;BME280;69665;55.822;37.330;2023-04-25T10:26:40;99062.25;;;22.89;18.58
72942;BME280;69665;55.822;37.330;2023-04-25T10:29:06;99062.75;;;23.02;18.69
72942;BME280;69665;55.822;37.330;2023-04-25T10:31:32;99059.09;;;22.94;18.73
72942;BME280;69665;55.822;37.330;2023-04-25T10:33:59;99056.34;;;22.86;19.20
72942;BME280;69665;55.822;37.330;2023-04-25T10:36:25;99055.94;;;22.44;18.61
72942;BME280;69665;55.822;37.330;2023-04-25T10:38:52;99049.84;;;22.14;18.55
72942;BME280;69665;55.822;37.330;2023-04-25T10:41:20;99055.97;;;22.07;18.87
72942;BME280;69665;55.822;37.330;2023-04-25T10:43:47;99055.97;;;22.07;18.63
72942;BME280;69665;55.822;37.330;2023-04-25T10:46:23;99042.66;;;22.15;19.18
72942;BME280;69665;55.822;37.330;2023-04-25T10:51:24;99037.25;;;22.24;18.86
72942;BME280;69665;55.822;37.330;2023-04-25T10:54:07;99040.63;;;22.26;18.88
72942;BME280;69665;55.822;37.330;2023-04-25T10:56:37;99035.44;;;22.15;19.08
72942;BME280;69665;55.822;37.330;2023-04-25T10:59:10;99028.78;;;22.19;19.64
72942;BME280;69665;55.822;37.330;2023-04-25T11:01:44;99025.28;;;22.19;19.67
72942;BME280;69665;55.822;37.330;2023-04-25T11:04:28;99020.09;;;21.98;20.36
72942;BME280;69665;55.822;37.330;2023-04-25T11:07:43;99036.63;;;21.93;19.33
72942;BME280;69665;55.822;37.330;2023-04-25T11:10:05;99011.66;;;21.83;19.12
72942;BME280;69665;55.822;37.330;2023-04-25T11:12:31;99015.78;;;21.78;19.87
72942;BME280;69665;55.822;37.330;2023-04-25T11:15:05;99007.25;;;21.92;20.23
72942;BME280;69665;55.822;37.330;2023-04-25T11:17:32;98985.13;;;21.90;19.43
72942;BME280;69665;55.822;37.330;2023-04-25T11:20:01;99002.47;;;21.95;20.15
72942;BME280;69665;55.822;37.330;2023-04-25T11:22:29;98989.19;;;22.04;19.14
72942;BME280;69665;55.822;37.330;2023-04-25T11:24:55;98987.38;;;22.04;19.67
72942;BME280;69665;55.822;37.330;2023-04-25T11:27:21;98989.75;;;22.07;19.27
72942;BME280;69665;55.822;37.330;2023-04-25T11:29:46;98977.34;;;22.06;19.62
72942;BME280;69665;55.822;37.330;2023-04-25T11:32:17;98982.94;;;22.13;19.19
72942;BME280;69665;55.822;37.330;2023-04-25T11:34:43;98968.44;;;22.06;19.03
72942;BME280;69665;55.822;37.330;2023-04-25T11:37:10;99007.69;;;22.07;19.17
72942;BME280;69665;55.822;37.330;2023-04-25T11:39:37;98977.78;;;21.92;18.40
72942;BME280;69665;55.822;37.330;2023-04-25T11:42:04;98986.53;;;21.84;18.81
72942;BME280;69665;55.822;37.330;2023-04-25T11:44:29;98976.16;;;21.72;19.37
72942;BME280;69665;55.822;37.330;2023-04-25T11:46:55;98977.59;;;21.56;19.13
72942;BME280;69665;55.822;37.330;2023-04-25T11:49:23;98961.34;;;21.58;19.22
72942;BME280;69665;55.822;37.330;2023-04-25T11:51:50;98979.25;;;21.67;18.93
72942;BME280;69665;55.822;37.330;2023-04-25T11:54:16;98957.69;;;21.59;19.17
72942;BME280;69665;55.822;37.330;2023-04-25T11:56:42;98959.78;;;21.65;19.25
72942;BME280;69665;55.822;37.330;2023-04-25T11:59:08;98949.47;;;21.70;19.31
72942;BME280;69665;55.822;37.330;2023-04-25T12:01:37;98943.56;;;21.76;19.11
72942;BME280;69665;55.822;37.330;2023-04-25T12:04:22;98941.56;;;21.78;20.05
72942;BME280;69665;55.822;37.330;2023-04-25T12:06:50;98944.16;;;21.97;19.24
72942;BME280;69665;55.822;37.330;2023-04-25T12:09:18;98944.91;;;21.90;19.33
72942;BME280;69665;55.822;37.330;2023-04-25T12:11:45;98935.91;;;21.81;19.72
72942;BME280;69665;55.822;37.330;2023-04-25T12:14:12;98943.97;;;21.81;19.35
72942;BME280;69665;55.822;37.330;2023-04-25T12:16:45;98937.59;;;21.82;19.85
72942;BME280;69665;55.822;37.330;2023-04-25T12:19:15;98931.34;;;21.91;19.51
72942;BME280;69665;55.822;37.330;2023-04-25T12:21:41;98921.59;;;21.90;19.69
72942;BME280;69665;55.822;37.330;2023-04-25T12:24:13;98922.16;;;22.04;19.67
72942;BME280;69665;55.822;37.330;2023-04-25T12:29:26;98902.00;;;21.90;19.31
72942;BME280;69665;55.822;37.330;2023-04-25T12:31:53;98911.84;;;21.99;19.24
72942;BME280;69665;55.822;37.330;2023-04-25T12:34:19;98918.50;;;21.95;19.61
72942;BME280;69665;55.822;37.330;2023-04-25T12:36:45;98918.84;;;21.82;19.00
72942;BME280;69665;55.822;37.330;2023-04-25T12:39:18;98901.69;;;21.65;20.88
72942;BME280;69665;55.822;37.330;2023-04-25T12:41:45;98893.13;;;21.52;19.15
72942;BME280;69665;55.822;37.330;2023-04-25T12:44:12;98899.47;;;21.51;20.00
72942;BME280;69665;55.822;37.330;2023-04-25T12:46:38;98895.97;;;21.51;20.22
72942;BME280;69665;55.822;37.330;2023-04-25T12:49:04;98883.97;;;21.55;20.09
72942;BME280;69665;55.822;37.330;2023-04-25T12:51:31;98872.63;;;21.61;20.15
72942;BME280;69665;55.822;37.330;2023-04-25T12:53:59;98872.06;;;21.67;20.05
72942;BME280;69665;55.822;37.330;2023-04-25T12:56:26;98877.22;;;21.78;20.08
72942;BME280;69665;55.822;37.330;2023-04-25T12:58:52;98866.53;;;21.68;20.13
72942;BME280;69665;55.822;37.330;2023-04-25T13:01:20;98880.53;;;21.62;19.66
72942;BME280;69665;55.822;37.330;2023-04-25T13:03:46;98873.81;;;21.49;20.27
72942;BME280;69665;55.822;37.330;2023-04-25T13:06:12;98867.63;;;21.39;20.36
72942;BME280;69665;55.822;37.330;2023-04-25T13:08:38;98855.81;;;21.31;20.69
72942;BME280;69665;55.822;37.330;2023-04-25T13:11:05;98856.97;;;21.29;20.32
72942;BME280;69665;55.822;37.330;2023-04-25T13:13:31;98856.81;;;21.30;20.74